sensor_id;sensor_type;location;lat;lon;timestamp;pressure;altitude;pressure_sealevel;temperature;humidity
85224;BME280;75619;51.316;4.824;2024-01-25T00:01:11;102660.91;;;8.22;100.00
85224;BME280;75619;51.316;4.824;2024-01-25T00:03:37;102671.44;;;8.22;100.00
85224;BME280;75619;51.316;4.824;2024-01-25T00:06:03;102671.72;;;8.14;100.00
85224;BME280;75619;51.316;4.824;2024-01-25T00:08:29;102671.13;;;8.06;100.00
85224;BME280;75619;51.316;4.824;2024-01-25T00:10:54;102675.75;;;7.99;100.00
85224;BME280;75619;51.316;4.824;2024-01-25T00:13:20;102675.97;;;7.93;100.00
85224;BME280;75619;51.316;4.824;2024-01-25T00:15:45;102670.50;;;7.99;100.00
85224;BME280;75619;51.316;4.824;2024-01-25T00:18:11;102671.13;;;8.06;100.00
85224;BME280;75619;51.316;4.824;2024-01-25T00:20:37;102678.44;;;7.98;100.00
85224;BME280;75619;51.316;4.824;2024-01-25T00:23:02;102665.34;;;7.96;100.00
85224;BME280;75619;51.316;4.824;2024-01-25T00:25:28;102668.06;;;7.93;100.00
85224;BME280;75619;51.316;4.824;2024-01-25T00:27:54;102673.75;;;7.81;100.00
85224;BME280;75619;51.316;4.824;2024-01-25T00:30:23;102678.53;;;7.70;100.00
85224;BME280;75619;51.316;4.824;2024-01-25T00:32:48;102669.28;;;7.59;100.00
85224;BME280;75619;51.316;4.824;2024-01-25T00:35:15;102674.75;;;7.53;100.00
85224;BME280;75619;51.316;4.824;2024-01-25T00:37:41;102677.66;;;7.44;100.00
85224;BME280;75619;51.316;4.824;2024-01-25T00:40:07;102683.31;;;7.31;100.00
85224;BME280;75619;51.316;4.824;2024-01-25T00:42:39;102688.06;;;7.20;100.00
85224;BME280;75619;51.316;4.824;2024-01-25T00:45:06;102687.69;;;7.05;100.00
85224;BME280;75619;51.316;4.824;2024-01-25T00:47:32;102678.09;;;7.02;100.00
85224;BME280;75619;51.316;4.824;2024-01-25T00:49:58;102680.88;;;6.98;100.00
85224;BME280;75619;51.316;4.824;2024-01-25T00:52:24;102680.19;;;6.91;100.00
85224;BME280;75619;51.316;4.824;2024-01-25T00:54:52;102679.53;;;6.85;100.00
85224;BME280;75619;51.316;4.824;2024-01-25T00:57:18;102688.56;;;6.75;100.00
85224;BME280;75619;51.316;4.824;2024-01-25T00:59:44;102689.75;;;6.66;100.00
85224;BME280;75619;51.316;4.824;2024-01-25T01:02:12;102691.63;;;6.61;100.00
85224;BME280;75619;51.316;4.824;2024-01-25T01:04:39;102690.13;;;6.52;100.00
85224;BME280;75619;51.316;4.824;2024-01-25T01:07:05;102686.09;;;6.41;100.00
85224;BME280;75619;51.316;4.824;2024-01-25T01:09:31;102690.63;;;6.34;100.00
85224;BME280;75619;51.316;4.824;2024-01-25T01:11:57;102701.97;;;6.36;100.00
85224;BME280;75619;51.316;4.824;2024-01-25T01:14:23;102703.00;;;6.31;100.00
85224;BME280;75619;51.316;4.824;2024-01-25T01:16:48;102698.00;;;6.22;100.00
85224;BME280;75619;51.316;4.824;2024-01-25T01:19:16;102705.28;;;6.11;100.00
85224;BME280;75619;51.316;4.824;2024-01-25T01:21:42;102703.47;;;6.13;100.00
85224;BME280;75619;51.316;4.824;2024-01-25T01:24:12;102713.28;;;6.06;100.00
85224;BME280;75619;51.316;4.824;2024-01-25T01:26:38;102714.47;;;5.95;100.00
85224;BME280;75619;51.316;4.824;2024-01-25T01:29:04;102707.50;;;5.94;100.00
85224;BME280;75619;51.316;4.824;2024-01-25T01:31:29;102711.78;;;5.96;100.00
85224;BME280;75619;51.316;4.824;2024-01-25T01:33:55;102710.25;;;5.89;100.00
85224;BME280;75619;51.316;4.824;2024-01-25T01:36:21;102711.22;;;5.85;100.00
85224;BME280;75619;51.316;4.824;2024-01-25T01:38:47;102710.34;;;5.85;100.00
85224;BME280;75619;51.316;4.824;2024-01-25T01:41:13;102712.06;;;5.86;100.00
85224;BME280;75619;51.316;4.824;2024-01-25T01:43:39;102706.81;;;5.87;100.00
85224;BME280;75619;51.316;4.824;2024-01-25T01:46:14;102719.88;;;5.89;100.00
85224;BME280;75619;51.316;4.824;2024-01-25T01:48:44;102714.72;;;5.84;100.00
85224;BME280;75619;51.316;4.824;2024-01-25T01:51:09;102720.16;;;5.77;100.00
85224;BME280;75619;51.316;4.824;2024-01-25T01:53:36;102715.84;;;5.74;100.00
85224;BME280;75619;51.316;4.824;2024-01-25T01:56:02;102714.91;;;5.77;100.00
85224;BME280;75619;51.316;4.824;2024-01-25T01:58:31;102723.75;;;5.72;100.00
85224;BME280;75619;51.316;4.824;2024-01-25T02:00:59;102716.88;;;5.67;100.00
85224;BME280;75619;51.316;4.824;2024-01-25T02:03:24;102721.22;;;5.68;100.00
85224;BME280;75619;51.316;4.824;2024-01-25T02:05:50;102720.75;;;5.52;100.00
85224;BME280;75619;51.316;4.824;2024-01-25T02:08:16;102730.41;;;5.50;100.00
85224;BME280;75619;51.316;4.824;2024-01-25T02:10:42;102729.84;;;5.38;100.00
85224;BME280;75619;51.316;4.824;2024-01-25T02:13:08;102725.59;;;5.32;100.00
85224;BME280;75619;51.316;4.824;2024-01-25T02:15:34;102725.69;;;5.28;100.00
85224;BME280;75619;51.316;4.824;2024-01-25T02:17:59;102730.09;;;5.26;100.00
85224;BME280;75619;51.316;4.824;2024-01-25T02:20:25;102735.47;;;5.20;100.00
85224;BME280;75619;51.316;4.824;2024-01-25T02:22:51;102735.63;;;5.15;100.00
85224;BME280;75619;51.316;4.824;2024-01-25T02:25:16;102746.19;;;5.09;100.00
85224;BME280;75619;51.316;4.824;2024-01-25T02:27:42;102750.75;;;5.01;100.00
85224;BME280;75619;51.316;4.824;2024-01-25T02:30:08;102759.56;;;4.99;100.00
85224;BME280;75619;51.316;4.824;2024-01-25T02:32:34;102754.41;;;4.92;100.00
85224;BME280;75619;51.316;4.824;2024-01-25T02:35:00;102751.97;;;4.85;100.00
85224;BME280;75619;51.316;4.824;2024-01-25T02:37:26;102760.00;;;4.76;100.00
85224;BME280;75619;51.316;4.824;2024-01-25T02:39:52;102746.25;;;4.66;100.00
85224;BME280;75619;51.316;4.824;2024-01-25T02:42:18;102751.66;;;4.57;100.00
85224;BME280;75619;51.316;4.824;2024-01-25T02:44:44;102753.63;;;4.46;100.00
85224;BME280;75619;51.316;4.824;2024-01-25T02:47:10;102749.44;;;4.38;100.00
85224;BME280;75619;51.316;4.824;2024-01-25T02:49:35;102745.09;;;4.35;100.00
85224;BME280;75619;51.316;4.824;2024-01-25T02:52:01;102743.56;;;4.25;100.00
85224;BME280;75619;51.316;4.824;2024-01-25T02:54:27;102746.28;;;4.19;100.00
85224;BME280;75619;51.316;4.824;2024-01-25T02:56:53;102748.94;;;4.16;100.00
85224;BME280;75619;51.316;4.824;2024-01-25T02:59:19;102750.72;;;4.14;100.00
85224;BME280;75619;51.316;4.824;2024-01-25T03:01:45;102765.53;;;4.17;100.00
85224;BME280;75619;51.316;4.824;2024-01-25T03:04:11;102776.00;;;4.17;100.00
85224;BME280;75619;51.316;4.824;2024-01-25T03:06:37;102777.72;;;4.16;100.00
85224;BME280;75619;51.316;4.824;2024-01-25T03:09:03;102774.28;;;4.16;100.00
85224;BME280;75619;51.316;4.824;2024-01-25T03:11:32;102773.06;;;4.33;100.00
85224;BME280;75619;51.316;4.824;2024-01-25T03:13:58;102782.56;;;4.39;100.00
85224;BME280;75619;51.316;4.824;2024-01-25T03:16:23;102781.72;;;4.37;100.00
85224;BME280;75619;51.316;4.824;2024-01-25T03:18:49;102783.63;;;4.29;100.00
85224;BME280;75619;51.316;4.824;2024-01-25T03:21:15;102787.41;;;4.13;100.00
85224;BME280;75619;51.316;4.824;2024-01-25T03:23:40;102778.16;;;3.92;100.00
85224;BME280;75619;51.316;4.824;2024-01-25T03:26:06;102780.22;;;3.72;100.00
85224;BME280;75619;51.316;4.824;2024-01-25T03:28:34;102767.50;;;3.48;100.00
85224;BME280;75619;51.316;4.824;2024-01-25T03:30:59;102765.09;;;3.34;100.00
85224;BME280;75619;51.316;4.824;2024-01-25T03:33:25;102777.44;;;3.23;100.00
85224;BME280;75619;51.316;4.824;2024-01-25T03:35:55;102770.41;;;3.29;100.00
85224;BME280;75619;51.316;4.824;2024-01-25T03:38:21;102762.47;;;3.37;100.00
85224;BME280;75619;51.316;4.824;2024-01-25T03:40:47;102765.69;;;3.53;100.00
85224;BME280;75619;51.316;4.824;2024-01-25T03:43:13;102768.19;;;3.60;100.00
85224;BME280;75619;51.316;4.824;2024-01-25T03:45:38;102772.50;;;3.66;100.00
85224;BME280;75619;51.316;4.824;2024-01-25T03:48:04;102775.81;;;3.75;100.00
85224;BME280;75619;51.316;4.824;2024-01-25T03:50:30;102766.19;;;3.77;100.00
85224;BME280;75619;51.316;4.824;2024-01-25T03:52:55;102767.81;;;3.83;100.00
85224;BME280;75619;51.316;4.824;2024-01-25T03:55:21;102775.88;;;3.72;100.00
85224;BME280;75619;51.316;4.824;2024-01-25T03:57:46;102771.63;;;3.65;100.00
85224;BME280;75619;51.316;4.824;2024-01-25T04:00:12;102775.78;;;3.77;100.00
85224;BME280;75619;51.316;4.824;2024-01-25T04:02:38;102771.44;;;3.76;100.00
85224;BME280;75619;51.316;4.824;2024-01-25T04:05:04;102786.31;;;3.74;100.00
85224;BME280;75619;51.316;4.824;2024-01-25T04:07:30;102787.34;;;3.62;100.00
85224;BME280;75619;51.316;4.824;2024-01-25T04:09:55;102778.84;;;3.48;100.00
85224;BME280;75619;51.316;4.824;2024-01-25T04:12:21;102778.13;;;3.39;100.00
85224;BME280;75619;51.316;4.824;2024-01-25T04:14:47;102774.78;;;3.27;100.00
85224;BME280;75619;51.316;4.824;2024-01-25T04:17:12;102779.34;;;3.10;100.00
85224;BME280;75619;51.316;4.824;2024-01-25T04:19:38;102777.81;;;2.97;100.00
85224;BME280;75619;51.316;4.824;2024-01-25T04:22:04;102773.66;;;2.80;100.00
85224;BME280;75619;51.316;4.824;2024-01-25T04:24:29;102766.78;;;2.71;100.00
85224;BME280;75619;51.316;4.824;2024-01-25T04:26:55;102760.72;;;2.69;100.00
85224;BME280;75619;51.316;4.824;2024-01-25T04:29:22;102758.03;;;2.75;100.00
85224;BME280;75619;51.316;4.824;2024-01-25T04:31:47;102761.47;;;2.80;100.00
85224;BME280;75619;51.316;4.824;2024-01-25T04:34:14;102759.81;;;2.73;100.00
85224;BME280;75619;51.316;4.824;2024-01-25T04:36:40;102758.16;;;2.66;100.00
85224;BME280;75619;51.316;4.824;2024-01-25T04:39:06;102761.75;;;2.58;100.00
85224;BME280;75619;51.316;4.824;2024-01-25T04:41:31;102766.09;;;2.57;100.00
85224;BME280;75619;51.316;4.824;2024-01-25T04:43:57;102769.63;;;2.52;100.00
85224;BME280;75619;51.316;4.824;2024-01-25T04:46:23;102776.63;;;2.50;100.00
85224;BME280;75619;51.316;4.824;2024-01-25T04:48:48;102773.25;;;2.38;100.00
85224;BME280;75619;51.316;4.824;2024-01-25T04:51:18;102768.09;;;2.32;100.00
85224;BME280;75619;51.316;4.824;2024-01-25T04:53:45;102772.56;;;2.20;100.00
85224;BME280;75619;51.316;4.824;2024-01-25T04:56:11;102778.75;;;2.13;100.00
85224;BME280;75619;51.316;4.824;2024-01-25T04:58:37;102783.91;;;2.16;100.00
85224;BME280;75619;51.316;4.824;2024-01-25T05:01:03;102779.66;;;2.06;100.00
85224;BME280;75619;51.316;4.824;2024-01-25T05:03:29;102776.22;;;1.99;100.00
85224;BME280;75619;51.316;4.824;2024-01-25T05:05:55;102764.06;;;1.97;100.00
85224;BME280;75619;51.316;4.824;2024-01-25T05:08:20;102771.06;;;1.95;100.00
85224;BME280;75619;51.316;4.824;2024-01-25T05:10:46;102771.94;;;1.91;100.00
85224;BME280;75619;51.316;4.824;2024-01-25T05:13:12;102773.78;;;1.84;100.00
85224;BME280;75619;51.316;4.824;2024-01-25T05:15:37;102768.38;;;2.01;100.00
85224;BME280;75619;51.316;4.824;2024-01-25T05:18:03;102761.16;;;2.30;100.00
85224;BME280;75619;51.316;4.824;2024-01-25T05:20:29;102767.81;;;2.57;100.00
85224;BME280;75619;51.316;4.824;2024-01-25T05:23:04;102773.84;;;2.66;100.00
85224;BME280;75619;51.316;4.824;2024-01-25T05:25:30;102783.44;;;2.61;100.00
85224;BME280;75619;51.316;4.824;2024-01-25T05:27:56;102784.34;;;2.57;100.00
85224;BME280;75619;51.316;4.824;2024-01-25T05:30:23;102780.81;;;2.64;100.00
85224;BME280;75619;51.316;4.824;2024-01-25T05:32:49;102765.81;;;2.83;100.00
85224;BME280;75619;51.316;4.824;2024-01-25T05:35:16;102760.34;;;3.01;100.00
85224;BME280;75619;51.316;4.824;2024-01-25T05:37:42;102760.16;;;3.16;100.00
85224;BME280;75619;51.316;4.824;2024-01-25T05:40:09;102774.78;;;3.27;100.00
85224;BME280;75619;51.316;4.824;2024-01-25T05:42:35;102779.03;;;3.36;100.00
85224;BME280;75619;51.316;4.824;2024-01-25T05:45:04;102792.28;;;3.22;100.00
85224;BME280;75619;51.316;4.824;2024-01-25T05:47:30;102783.72;;;3.11;100.00
85224;BME280;75619;51.316;4.824;2024-01-25T05:49:56;102780.38;;;3.02;100.00
85224;BME280;75619;51.316;4.824;2024-01-25T05:52:23;102781.28;;;2.96;100.00
85224;BME280;75619;51.316;4.824;2024-01-25T05:54:50;102772.56;;;2.99;100.00
85224;BME280;75619;51.316;4.824;2024-01-25T05:57:16;102769.03;;;3.01;100.00
85224;BME280;75619;51.316;4.824;2024-01-25T05:59:42;102768.97;;;3.07;100.00
85224;BME280;75619;51.316;4.824;2024-01-25T06:02:09;102781.22;;;3.04;100.00
85224;BME280;75619;51.316;4.824;2024-01-25T06:04:34;102776.91;;;2.98;100.00
85224;BME280;75619;51.316;4.824;2024-01-25T06:07:00;102776.13;;;2.90;100.00
85224;BME280;75619;51.316;4.824;2024-01-25T06:09:26;102770.25;;;2.73;100.00
85224;BME280;75619;51.316;4.824;2024-01-25T06:11:52;102771.44;;;2.48;100.00
85224;BME280;75619;51.316;4.824;2024-01-25T06:14:18;102770.81;;;2.23;100.00
85224;BME280;75619;51.316;4.824;2024-01-25T06:16:44;102758.75;;;2.10;100.00
85224;BME280;75619;51.316;4.824;2024-01-25T06:19:10;102771.91;;;1.95;100.00
85224;BME280;75619;51.316;4.824;2024-01-25T06:21:36;102765.97;;;1.80;100.00
85224;BME280;75619;51.316;4.824;2024-01-25T06:24:06;102779.13;;;1.68;100.00
85224;BME280;75619;51.316;4.824;2024-01-25T06:26:32;102777.28;;;1.79;100.00
85224;BME280;75619;51.316;4.824;2024-01-25T06:28:58;102784.03;;;2.02;100.00
85224;BME280;75619;51.316;4.824;2024-01-25T06:31:24;102785.59;;;2.23;100.00
85224;BME280;75619;51.316;4.824;2024-01-25T06:33:50;102789.81;;;2.37;100.00
85224;BME280;75619;51.316;4.824;2024-01-25T06:36:21;102802.66;;;2.59;100.00
85224;BME280;75619;51.316;4.824;2024-01-25T06:38:47;102792.91;;;2.73;100.00
85224;BME280;75619;51.316;4.824;2024-01-25T06:41:12;102792.91;;;2.73;100.00
85224;BME280;75619;51.316;4.824;2024-01-25T06:43:38;102791.13;;;2.76;100.00
85224;BME280;75619;51.316;4.824;2024-01-25T06:46:08;102775.41;;;2.78;100.00
85224;BME280;75619;51.316;4.824;2024-01-25T06:48:34;102782.28;;;2.86;100.00
85224;BME280;75619;51.316;4.824;2024-01-25T06:51:00;102780.53;;;2.87;100.00
85224;BME280;75619;51.316;4.824;2024-01-25T06:53:28;102799.69;;;2.89;100.00
85224;BME280;75619;51.316;4.824;2024-01-25T06:55:54;102796.06;;;2.99;100.00
85224;BME280;75619;51.316;4.824;2024-01-25T06:58:19;102794.94;;;3.19;100.00
85224;BME280;75619;51.316;4.824;2024-01-25T07:00:45;102793.16;;;3.21;100.00
85224;BME280;75619;51.316;4.824;2024-01-25T07:03:12;102798.34;;;3.23;100.00
85224;BME280;75619;51.316;4.824;2024-01-25T07:05:38;102787.16;;;3.13;100.00
85224;BME280;75619;51.316;4.824;2024-01-25T07:08:04;102786.41;;;3.05;100.00
85224;BME280;75619;51.316;4.824;2024-01-25T07:10:30;102795.25;;;2.94;100.00
85224;BME280;75619;51.316;4.824;2024-01-25T07:12:57;102803.19;;;2.86;100.00
85224;BME280;75619;51.316;4.824;2024-01-25T07:15:22;102800.66;;;2.80;100.00
85224;BME280;75619;51.316;4.824;2024-01-25T07:17:48;102805.97;;;2.73;100.00
85224;BME280;75619;51.316;4.824;2024-01-25T07:20:14;102807.66;;;2.77;100.00
85224;BME280;75619;51.316;4.824;2024-01-25T07:22:40;102797.97;;;2.86;100.00
85224;BME280;75619;51.316;4.824;2024-01-25T07:25:06;102799.66;;;2.90;100.00
85224;BME280;75619;51.316;4.824;2024-01-25T07:27:31;102793.56;;;2.90;100.00
85224;BME280;75619;51.316;4.824;2024-01-25T07:29:57;102789.06;;;3.01;100.00
85224;BME280;75619;51.316;4.824;2024-01-25T07:32:23;102783.72;;;3.11;100.00
85224;BME280;75619;51.316;4.824;2024-01-25T07:34:52;102795.00;;;3.13;100.00
85224;BME280;75619;51.316;4.824;2024-01-25T07:37:18;102793.28;;;3.11;100.00
85224;BME280;75619;51.316;4.824;2024-01-25T07:39:44;102789.81;;;3.10;100.00
85224;BME280;75619;51.316;4.824;2024-01-25T07:42:10;102791.59;;;3.10;100.00
85224;BME280;75619;51.316;4.824;2024-01-25T07:44:36;102796.75;;;3.13;100.00
85224;BME280;75619;51.316;4.824;2024-01-25T07:47:02;102799.28;;;3.20;100.00
85224;BME280;75619;51.316;4.824;2024-01-25T07:49:29;102786.00;;;3.37;100.00
85224;BME280;75619;51.316;4.824;2024-01-25T07:51:54;102784.03;;;3.51;100.00
85224;BME280;75619;51.316;4.824;2024-01-25T07:54:22;102789.19;;;3.57;100.00
85224;BME280;75619;51.316;4.824;2024-01-25T07:56:48;102793.44;;;3.63;100.00
85224;BME280;75619;51.316;4.824;2024-01-25T07:59:13;102788.16;;;3.67;100.00
85224;BME280;75619;51.316;4.824;2024-01-25T08:01:39;102783.00;;;3.61;100.00
85224;BME280;75619;51.316;4.824;2024-01-25T08:04:04;102795.31;;;3.55;100.00
85224;BME280;75619;51.316;4.824;2024-01-25T08:06:30;102793.59;;;3.52;100.00
85224;BME280;75619;51.316;4.824;2024-01-25T08:08:56;102793.50;;;3.60;100.00
85224;BME280;75619;51.316;4.824;2024-01-25T08:11:21;102777.84;;;3.57;100.00
85224;BME280;75619;51.316;4.824;2024-01-25T08:13:48;102782.13;;;3.61;100.00
85224;BME280;75619;51.316;4.824;2024-01-25T08:16:14;102777.72;;;3.66;100.00
85224;BME280;75619;51.316;4.824;2024-01-25T08:18:45;102778.50;;;3.71;100.00
85224;BME280;75619;51.316;4.824;2024-01-25T08:21:11;102778.28;;;3.83;100.00
85224;BME280;75619;51.316;4.824;2024-01-25T08:23:37;102768.63;;;3.88;100.00
85224;BME280;75619;51.316;4.824;2024-01-25T08:26:04;102772.84;;;3.96;100.00
85224;BME280;75619;51.316;4.824;2024-01-25T08:28:29;102778.03;;;3.99;100.00
85224;BME280;75619;51.316;4.824;2024-01-25T08:30:55;102775.28;;;4.07;100.00
85224;BME280;75619;51.316;4.824;2024-01-25T08:33:20;102776.03;;;4.15;100.00
85224;BME280;75619;51.316;4.824;2024-01-25T08:35:46;102778.56;;;4.18;100.00
85224;BME280;75619;51.316;4.824;2024-01-25T08:38:12;102769.75;;;4.24;100.00
85224;BME280;75619;51.316;4.824;2024-01-25T08:40:37;102771.34;;;4.32;100.00
85224;BME280;75619;51.316;4.824;2024-01-25T08:43:03;102765.06;;;4.41;100.00
85224;BME280;75619;51.316;4.824;2024-01-25T08:45:30;102780.66;;;4.48;100.00
85224;BME280;75619;51.316;4.824;2024-01-25T08:47:55;102775.34;;;4.53;100.00
85224;BME280;75619;51.316;4.824;2024-01-25T08:50:22;102779.53;;;4.61;100.00
85224;BME280;75619;51.316;4.824;2024-01-25T08:52:48;102784.66;;;4.67;100.00
85224;BME280;75619;51.316;4.824;2024-01-25T08:55:14;102788.09;;;4.69;100.00
85224;BME280;75619;51.316;4.824;2024-01-25T08:57:39;102792.41;;;4.72;100.00
85224;BME280;75619;51.316;4.824;2024-01-25T09:00:06;102781.78;;;4.78;100.00
85224;BME280;75619;51.316;4.824;2024-01-25T09:02:36;102774.69;;;4.84;100.00
85224;BME280;75619;51.316;4.824;2024-01-25T09:05:03;102768.44;;;4.91;100.00
85224;BME280;75619;51.316;4.824;2024-01-25T09:07:29;102762.28;;;4.94;100.00
85224;BME280;75619;51.316;4.824;2024-01-25T09:09:55;102776.94;;;5.03;100.00
85224;BME280;75619;51.316;4.824;2024-01-25T09:12:20;102774.06;;;5.15;100.00
85224;BME280;75619;51.316;4.824;2024-01-25T09:14:46;102778.25;;;5.23;100.00
85224;BME280;75619;51.316;4.824;2024-01-25T09:17:12;102786.91;;;5.27;100.00
85224;BME280;75619;51.316;4.824;2024-01-25T09:19:39;102785.72;;;5.41;100.00
85224;BME280;75619;51.316;4.824;2024-01-25T09:22:06;102791.41;;;5.60;100.00
85224;BME280;75619;51.316;4.824;2024-01-25T09:24:33;102790.56;;;5.58;100.00
85224;BME280;75619;51.316;4.824;2024-01-25T09:27:04;102783.13;;;5.77;100.00
85224;BME280;75619;51.316;4.824;2024-01-25T09:29:30;102787.34;;;5.82;100.00
85224;BME280;75619;51.316;4.824;2024-01-25T09:31:55;102777.66;;;5.86;100.00
85224;BME280;75619;51.316;4.824;2024-01-25T09:34:21;102784.66;;;5.87;100.00
85224;BME280;75619;51.316;4.824;2024-01-25T09:36:47;102788.16;;;5.87;100.00
85224;BME280;75619;51.316;4.824;2024-01-25T09:39:13;102786.94;;;6.00;100.00
85224;BME280;75619;51.316;4.824;2024-01-25T09:41:40;102790.25;;;6.08;100.00
85224;BME280;75619;51.316;4.824;2024-01-25T09:44:09;102783.81;;;6.20;100.00
85224;BME280;75619;51.316;4.824;2024-01-25T09:46:35;102782.56;;;6.34;100.00
85224;BME280;75619;51.316;4.824;2024-01-25T09:49:01;102777.84;;;6.47;100.00
85224;BME280;75619;51.316;4.824;2024-01-25T09:51:32;102768.81;;;6.57;100.00
85224;BME280;75619;51.316;4.824;2024-01-25T09:54:01;102766.94;;;6.61;100.00
85224;BME280;75619;51.316;4.824;2024-01-25T09:56:30;102764.09;;;6.70;100.00
85224;BME280;75619;51.316;4.824;2024-01-25T09:59:03;102768.56;;;6.66;100.00
85224;BME280;75619;51.316;4.824;2024-01-25T10:01:30;102760.53;;;6.71;100.00
85224;BME280;75619;51.316;4.824;2024-01-25T10:04:06;102764.72;;;6.78;100.00
85224;BME280;75619;51.316;4.824;2024-01-25T10:06:32;102765.41;;;6.84;100.00
85224;BME280;75619;51.316;4.824;2024-01-25T10:08:58;102752.69;;;7.00;100.00
85224;BME280;75619;51.316;4.824;2024-01-25T10:11:24;102754.13;;;7.10;100.00
85224;BME280;75619;51.316;4.824;2024-01-25T10:13:52;102752.22;;;7.15;100.00
85224;BME280;75619;51.316;4.824;2024-01-25T10:16:19;102757.41;;;7.18;100.00
85224;BME280;75619;51.316;4.824;2024-01-25T10:18:48;102750.59;;;7.11;100.00
85224;BME280;75619;51.316;4.824;2024-01-25T10:21:14;102742.66;;;7.12;100.00
85224;BME280;75619;51.316;4.824;2024-01-25T10:23:48;102744.16;;;7.21;100.00
85224;BME280;75619;51.316;4.824;2024-01-25T10:26:13;102753.00;;;7.18;100.00
85224;BME280;75619;51.316;4.824;2024-01-25T10:28:40;102740.72;;;7.19;100.00
85224;BME280;75619;51.316;4.824;2024-01-25T10:31:06;102742.97;;;7.31;100.00
85224;BME280;75619;51.316;4.824;2024-01-25T10:33:33;102738.38;;;7.38;100.00
85224;BME280;75619;51.316;4.824;2024-01-25T10:36:01;102737.41;;;7.40;100.00
85224;BME280;75619;51.316;4.824;2024-01-25T10:38:33;102741.34;;;7.55;100.00
85224;BME280;75619;51.316;4.824;2024-01-25T10:41:05;102733.31;;;7.59;100.00
85224;BME280;75619;51.316;4.824;2024-01-25T10:43:34;102739.41;;;7.60;100.00
85224;BME280;75619;51.316;4.824;2024-01-25T10:45:59;102727.50;;;7.48;100.00
85224;BME280;75619;51.316;4.824;2024-01-25T10:48:26;102725.63;;;7.52;100.00
85224;BME280;75619;51.316;4.824;2024-01-25T10:50:57;102723.94;;;7.51;100.00
85224;BME280;75619;51.316;4.824;2024-01-25T10:53:26;102728.22;;;7.53;100.00
85224;BME280;75619;51.316;4.824;2024-01-25T10:55:52;102724.59;;;7.57;100.00
85224;BME280;75619;51.316;4.824;2024-01-25T10:58:18;102707.59;;;7.67;100.00
85224;BME280;75619;51.316;4.824;2024-01-25T11:00:59;102707.66;;;7.90;100.00
85224;BME280;75619;51.316;4.824;2024-01-25T11:03:26;102688.63;;;7.82;100.00
85224;BME280;75619;51.316;4.824;2024-01-25T11:06:13;102675.75;;;7.99;100.00
85224;BME280;75619;51.316;4.824;2024-01-25T11:08:40;102675.88;;;7.96;100.00
85224;BME280;75619;51.316;4.824;2024-01-25T11:11:06;102675.75;;;7.99;100.00
85224;BME280;75619;51.316;4.824;2024-01-25T11:13:33;102664.91;;;8.08;100.00
85224;BME280;75619;51.316;4.824;2024-01-25T11:16:12;102663.75;;;8.15;100.00
85224;BME280;75619;51.316;4.824;2024-01-25T11:18:48;102656.78;;;8.14;100.00
85224;BME280;75619;51.316;4.824;2024-01-25T11:21:39;102666.25;;;8.20;100.00
85224;BME280;75619;51.316;4.824;2024-01-25T11:24:20;102666.97;;;8.25;100.00
85224;BME280;75619;51.316;4.824;2024-01-25T11:26:47;102660.53;;;8.34;100.00
85224;BME280;75619;51.316;4.824;2024-01-25T11:29:17;102652.25;;;8.43;100.00
85224;BME280;75619;51.316;4.824;2024-01-25T11:31:45;102656.78;;;8.39;100.00
85224;BME280;75619;51.316;4.824;2024-01-25T11:34:12;102657.31;;;8.49;100.00
85224;BME280;75619;51.316;4.824;2024-01-25T11:36:38;102654.28;;;8.59;100.00
85224;BME280;75619;51.316;4.824;2024-01-25T11:39:04;102655.19;;;8.58;100.00
85224;BME280;75619;51.316;4.824;2024-01-25T11:41:32;102661.91;;;8.67;100.00
85224;BME280;75619;51.316;4.824;2024-01-25T11:43:57;102659.28;;;8.67;100.00
85224;BME280;75619;51.316;4.824;2024-01-25T11:46:24;102661.09;;;8.65;100.00
85224;BME280;75619;51.316;4.824;2024-01-25T11:48:51;102662.19;;;8.59;100.00
85224;BME280;75619;51.316;4.824;2024-01-25T11:51:17;102651.22;;;8.47;100.00
85224;BME280;75619;51.316;4.824;2024-01-25T11:53:43;102655.06;;;8.38;100.00
85224;BME280;75619;51.316;4.824;2024-01-25T11:56:20;102647.53;;;8.28;100.00
85224;BME280;75619;51.316;4.824;2024-01-25T11:58:47;102647.94;;;8.17;100.00
85224;BME280;75619;51.316;4.824;2024-01-25T12:01:13;102647.16;;;8.13;100.00
85224;BME280;75619;51.316;4.824;2024-01-25T12:03:40;102642.22;;;8.04;100.00
85224;BME280;75619;51.316;4.824;2024-01-25T12:06:06;102644.31;;;7.95;100.00
85224;BME280;75619;51.316;4.824;2024-01-25T12:08:35;102633.53;;;8.02;100.00
85224;BME280;75619;51.316;4.824;2024-01-25T12:11:08;102632.06;;;7.94;100.00
85224;BME280;75619;51.316;4.824;2024-01-25T12:13:42;102626.91;;;7.91;100.00
85224;BME280;75619;51.316;4.824;2024-01-25T12:16:11;102614.75;;;7.87;100.00
85224;BME280;75619;51.316;4.824;2024-01-25T12:18:38;102621.69;;;7.89;100.00
85224;BME280;75619;51.316;4.824;2024-01-25T12:21:04;102616.06;;;8.00;100.00
85224;BME280;75619;51.316;4.824;2024-01-25T12:23:32;102598.81;;;7.91;100.00
85224;BME280;75619;51.316;4.824;2024-01-25T12:26:03;102591.81;;;7.90;100.00
85224;BME280;75619;51.316;4.824;2024-01-25T12:28:32;102589.78;;;7.98;100.00
85224;BME280;75619;51.316;4.824;2024-01-25T12:30:59;102586.53;;;7.90;100.00
85224;BME280;75619;51.316;4.824;2024-01-25T12:33:25;102582.94;;;7.93;100.00
85224;BME280;75619;51.316;4.824;2024-01-25T12:35:51;102586.22;;;7.99;100.00
85224;BME280;75619;51.316;4.824;2024-01-25T12:38:17;102587.16;;;7.98;100.00
85224;BME280;75619;51.316;4.824;2024-01-25T12:40:47;102579.41;;;7.94;100.00
85224;BME280;75619;51.316;4.824;2024-01-25T12:43:14;102578.47;;;7.95;100.00
85224;BME280;75619;51.316;4.824;2024-01-25T12:45:40;102583.72;;;7.96;100.00
85224;BME280;75619;51.316;4.824;2024-01-25T12:48:06;102571.13;;;8.04;100.00